sensor_id;sensor_type;location;lat;lon;timestamp;temperature;humidity
68609;SHT31;55581;46.718;7.690;2022-07-10T00:00:37;16.58;67.43
68609;SHT31;55581;46.718;7.690;2022-07-10T00:03:03;16.56;67.98
68609;SHT31;55581;46.718;7.690;2022-07-10T00:05:29;16.56;68.18
68609;SHT31;55581;46.718;7.690;2022-07-10T00:07:56;16.56;67.35
68609;SHT31;55581;46.718;7.690;2022-07-10T00:10:22;16.54;67.47
68609;SHT31;55581;46.718;7.690;2022-07-10T00:12:48;16.48;67.93
68609;SHT31;55581;46.718;7.690;2022-07-10T00:15:15;16.52;68.63
68609;SHT31;55581;46.718;7.690;2022-07-10T00:17:42;16.52;68.32
68609;SHT31;55581;46.718;7.690;2022-07-10T00:20:09;16.48;68.36
68609;SHT31;55581;46.718;7.690;2022-07-10T00:22:36;16.49;67.52
68609;SHT31;55581;46.718;7.690;2022-07-10T00:25:03;16.55;67.21
68609;SHT31;55581;46.718;7.690;2022-07-10T00:27:32;16.55;67.28
68609;SHT31;55581;46.718;7.690;2022-07-10T00:29:58;16.58;67.85
68609;SHT31;55581;46.718;7.690;2022-07-10T00:32:26;16.41;69.42
68609;SHT31;55581;46.718;7.690;2022-07-10T00:34:52;16.41;67.69
68609;SHT31;55581;46.718;7.690;2022-07-10T00:37:18;16.38;69.02
68609;SHT31;55581;46.718;7.690;2022-07-10T00:39:48;16.44;69.10
68609;SHT31;55581;46.718;7.690;2022-07-10T00:42:14;16.45;69.36
68609;SHT31;55581;46.718;7.690;2022-07-10T00:44:41;16.40;69.04
68609;SHT31;55581;46.718;7.690;2022-07-10T00:47:08;16.29;69.00
68609;SHT31;55581;46.718;7.690;2022-07-10T00:49:35;16.31;69.39
68609;SHT31;55581;46.718;7.690;2022-07-10T00:52:03;16.24;69.66
68609;SHT31;55581;46.718;7.690;2022-07-10T00:54:29;16.18;69.95
68609;SHT31;55581;46.718;7.690;2022-07-10T00:56:58;16.14;70.42
68609;SHT31;55581;46.718;7.690;2022-07-10T00:59:25;16.14;70.61
68609;SHT31;55581;46.718;7.690;2022-07-10T01:01:51;16.20;70.14
68609;SHT31;55581;46.718;7.690;2022-07-10T01:04:18;16.16;70.57
68609;SHT31;55581;46.718;7.690;2022-07-10T01:06:46;16.11;71.10
68609;SHT31;55581;46.718;7.690;2022-07-10T01:09:12;16.13;70.85
68609;SHT31;55581;46.718;7.690;2022-07-10T01:11:37;16.11;71.01
68609;SHT31;55581;46.718;7.690;2022-07-10T01:14:03;16.10;71.12
68609;SHT31;55581;46.718;7.690;2022-07-10T01:16:29;16.09;70.77
68609;SHT31;55581;46.718;7.690;2022-07-10T01:18:56;16.07;70.73
68609;SHT31;55581;46.718;7.690;2022-07-10T01:21:29;15.97;71.35
68609;SHT31;55581;46.718;7.690;2022-07-10T01:24:00;15.99;71.18
68609;SHT31;55581;46.718;7.690;2022-07-10T01:26:28;16.01;71.29
68609;SHT31;55581;46.718;7.690;2022-07-10T01:28:54;15.99;71.48
68609;SHT31;55581;46.718;7.690;2022-07-10T01:31:24;16.01;71.98
68609;SHT31;55581;46.718;7.690;2022-07-10T01:33:50;16.04;71.81
68609;SHT31;55581;46.718;7.690;2022-07-10T01:36:17;16.01;72.03
68609;SHT31;55581;46.718;7.690;2022-07-10T01:38:43;16.03;71.73
68609;SHT31;55581;46.718;7.690;2022-07-10T01:41:10;16.03;71.82
68609;SHT31;55581;46.718;7.690;2022-07-10T01:43:38;16.00;71.96
68609;SHT31;55581;46.718;7.690;2022-07-10T01:46:10;16.00;71.83
68609;SHT31;55581;46.718;7.690;2022-07-10T01:48:37;16.00;71.94
68609;SHT31;55581;46.718;7.690;2022-07-10T01:51:03;15.96;72.17
68609;SHT31;55581;46.718;7.690;2022-07-10T01:53:29;16.00;71.64
68609;SHT31;55581;46.718;7.690;2022-07-10T01:55:55;15.94;71.76
68609;SHT31;55581;46.718;7.690;2022-07-10T01:58:21;15.93;72.10
68609;SHT31;55581;46.718;7.690;2022-07-10T02:00:46;15.97;71.98
68609;SHT31;55581;46.718;7.690;2022-07-10T02:03:11;15.91;72.33
68609;SHT31;55581;46.718;7.690;2022-07-10T02:05:55;15.91;72.65
68609;SHT31;55581;46.718;7.690;2022-07-10T02:08:21;15.91;71.91
68609;SHT31;55581;46.718;7.690;2022-07-10T02:10:46;15.90;72.25
68609;SHT31;55581;46.718;7.690;2022-07-10T02:13:12;15.86;72.36
68609;SHT31;55581;46.718;7.690;2022-07-10T02:15:40;15.93;72.40
68609;SHT31;55581;46.718;7.690;2022-07-10T02:18:06;15.96;71.90
68609;SHT31;55581;46.718;7.690;2022-07-10T02:20:35;15.96;72.09
68609;SHT31;55581;46.718;7.690;2022-07-10T02:23:01;15.90;72.17
68609;SHT31;55581;46.718;7.690;2022-07-10T02:25:27;15.86;72.45
68609;SHT31;55581;46.718;7.690;2022-07-10T02:27:52;15.85;72.20
68609;SHT31;55581;46.718;7.690;2022-07-10T02:30:20;15.80;72.31
68609;SHT31;55581;46.718;7.690;2022-07-10T02:32:48;15.79;72.23
68609;SHT31;55581;46.718;7.690;2022-07-10T02:35:16;15.83;71.77
68609;SHT31;55581;46.718;7.690;2022-07-10T02:37:44;15.72;72.72
68609;SHT31;55581;46.718;7.690;2022-07-10T02:40:10;15.73;72.42
68609;SHT31;55581;46.718;7.690;2022-07-10T02:42:36;15.73;73.06
68609;SHT31;55581;46.718;7.690;2022-07-10T02:45:03;15.74;72.15
68609;SHT31;55581;46.718;7.690;2022-07-10T02:47:31;15.70;72.63
68609;SHT31;55581;46.718;7.690;2022-07-10T02:50:00;15.69;73.10
68609;SHT31;55581;46.718;7.690;2022-07-10T02:52:25;15.74;73.06
68609;SHT31;55581;46.718;7.690;2022-07-10T02:54:56;15.72;72.92
68609;SHT31;55581;46.718;7.690;2022-07-10T02:57:24;15.70;73.21
68609;SHT31;55581;46.718;7.690;2022-07-10T02:59:51;15.74;72.57
68609;SHT31;55581;46.718;7.690;2022-07-10T03:02:17;15.69;72.52
68609;SHT31;55581;46.718;7.690;2022-07-10T03:04:42;15.66;72.75
68609;SHT31;55581;46.718;7.690;2022-07-10T03:07:08;15.73;72.56
68609;SHT31;55581;46.718;7.690;2022-07-10T03:09:36;15.72;72.43
68609;SHT31;55581;46.718;7.690;2022-07-10T03:12:01;15.62;73.32
68609;SHT31;55581;46.718;7.690;2022-07-10T03:14:27;15.59;73.49
68609;SHT31;55581;46.718;7.690;2022-07-10T03:16:55;15.63;72.97
68609;SHT31;55581;46.718;7.690;2022-07-10T03:19:22;15.56;73.18
68609;SHT31;55581;46.718;7.690;2022-07-10T03:21:50;15.62;73.41
68609;SHT31;55581;46.718;7.690;2022-07-10T03:24:16;15.52;73.85
68609;SHT31;55581;46.718;7.690;2022-07-10T03:26:43;15.54;73.74
68609;SHT31;55581;46.718;7.690;2022-07-10T03:29:10;15.51;73.85
68609;SHT31;55581;46.718;7.690;2022-07-10T03:31:35;15.49;73.61
68609;SHT31;55581;46.718;7.690;2022-07-10T03:34:01;15.45;73.79
68609;SHT31;55581;46.718;7.690;2022-07-10T03:36:26;15.51;73.67
68609;SHT31;55581;46.718;7.690;2022-07-10T03:38:52;15.48;73.84
68609;SHT31;55581;46.718;7.690;2022-07-10T03:41:17;15.41;74.06
68609;SHT31;55581;46.718;7.690;2022-07-10T03:43:43;15.34;73.86
68609;SHT31;55581;46.718;7.690;2022-07-10T03:46:08;15.36;73.55
68609;SHT31;55581;46.718;7.690;2022-07-10T03:48:35;15.36;73.98
68609;SHT31;55581;46.718;7.690;2022-07-10T03:51:01;15.34;73.91
68609;SHT31;55581;46.718;7.690;2022-07-10T03:53:26;15.34;74.12
68609;SHT31;55581;46.718;7.690;2022-07-10T03:55:54;15.35;73.81
68609;SHT31;55581;46.718;7.690;2022-07-10T03:58:20;15.36;74.12
68609;SHT31;55581;46.718;7.690;2022-07-10T04:00:45;15.35;74.28
68609;SHT31;55581;46.718;7.690;2022-07-10T04:03:11;15.34;74.27
68609;SHT31;55581;46.718;7.690;2022-07-10T04:05:38;15.32;74.05
68609;SHT31;55581;46.718;7.690;2022-07-10T04:08:03;15.36;74.13
68609;SHT31;55581;46.718;7.690;2022-07-10T04:10:30;15.39;73.84
68609;SHT31;55581;46.718;7.690;2022-07-10T04:12:56;15.38;73.95
68609;SHT31;55581;46.718;7.690;2022-07-10T04:15:22;15.41;74.07
68609;SHT31;55581;46.718;7.690;2022-07-10T04:17:49;15.35;74.44
68609;SHT31;55581;46.718;7.690;2022-07-10T04:20:15;15.41;74.28
68609;SHT31;55581;46.718;7.690;2022-07-10T04:22:44;15.41;74.47
68609;SHT31;55581;46.718;7.690;2022-07-10T04:25:10;15.42;74.82
68609;SHT31;55581;46.718;7.690;2022-07-10T04:27:35;15.39;75.43
68609;SHT31;55581;46.718;7.690;2022-07-10T04:30:03;15.41;75.63
68609;SHT31;55581;46.718;7.690;2022-07-10T04:32:29;15.41;75.99
68609;SHT31;55581;46.718;7.690;2022-07-10T04:34:55;15.36;76.47
68609;SHT31;55581;46.718;7.690;2022-07-10T04:37:23;15.41;76.32
68609;SHT31;55581;46.718;7.690;2022-07-10T04:39:49;15.41;76.44
68609;SHT31;55581;46.718;7.690;2022-07-10T04:42:14;15.34;76.64
68609;SHT31;55581;46.718;7.690;2022-07-10T04:44:40;15.44;76.71
68609;SHT31;55581;46.718;7.690;2022-07-10T04:47:06;15.44;76.82
68609;SHT31;55581;46.718;7.690;2022-07-10T04:49:33;15.39;76.85
68609;SHT31;55581;46.718;7.690;2022-07-10T04:51:59;15.48;76.61
68609;SHT31;55581;46.718;7.690;2022-07-10T04:54:25;15.44;76.46
68609;SHT31;55581;46.718;7.690;2022-07-10T04:56:50;15.39;76.85
68609;SHT31;55581;46.718;7.690;2022-07-10T04:59:16;15.41;76.45
68609;SHT31;55581;46.718;7.690;2022-07-10T05:01:42;15.41;76.99
68609;SHT31;55581;46.718;7.690;2022-07-10T05:04:07;15.45;77.37
68609;SHT31;55581;46.718;7.690;2022-07-10T05:06:34;15.44;76.84
68609;SHT31;55581;46.718;7.690;2022-07-10T05:09:00;15.44;76.59
68609;SHT31;55581;46.718;7.690;2022-07-10T05:11:25;15.38;77.06
68609;SHT31;55581;46.718;7.690;2022-07-10T05:13:51;15.42;76.79
68609;SHT31;55581;46.718;7.690;2022-07-10T05:16:17;15.42;77.36
68609;SHT31;55581;46.718;7.690;2022-07-10T05:18:43;15.32;76.80
68609;SHT31;55581;46.718;7.690;2022-07-10T05:21:08;15.46;76.51
68609;SHT31;55581;46.718;7.690;2022-07-10T05:23:34;15.49;76.45
68609;SHT31;55581;46.718;7.690;2022-07-10T05:26:00;15.35;77.88
68609;SHT31;55581;46.718;7.690;2022-07-10T05:28:25;15.44;77.16
68609;SHT31;55581;46.718;7.690;2022-07-10T05:30:52;15.44;77.84
68609;SHT31;55581;46.718;7.690;2022-07-10T05:33:18;15.39;77.57
68609;SHT31;55581;46.718;7.690;2022-07-10T05:35:44;15.34;78.21
68609;SHT31;55581;46.718;7.690;2022-07-10T05:38:13;15.41;78.45
68609;SHT31;55581;46.718;7.690;2022-07-10T05:40:39;15.34;78.40
68609;SHT31;55581;46.718;7.690;2022-07-10T05:43:04;15.38;78.87
68609;SHT31;55581;46.718;7.690;2022-07-10T05:45:30;15.41;77.36
68609;SHT31;55581;46.718;7.690;2022-07-10T05:47:56;15.42;77.44
68609;SHT31;55581;46.718;7.690;2022-07-10T05:50:22;15.41;77.11
68609;SHT31;55581;46.718;7.690;2022-07-10T05:52:48;15.39;77.42
68609;SHT31;55581;46.718;7.690;2022-07-10T05:55:14;15.41;77.79
68609;SHT31;55581;46.718;7.690;2022-07-10T05:57:42;15.36;77.62
68609;SHT31;55581;46.718;7.690;2022-07-10T06:00:08;15.31;78.26
68609;SHT31;55581;46.718;7.690;2022-07-10T06:02:36;15.32;78.02
68609;SHT31;55581;46.718;7.690;2022-07-10T06:05:01;15.42;77.47
68609;SHT31;55581;46.718;7.690;2022-07-10T06:07:27;15.42;78.28
68609;SHT31;55581;46.718;7.690;2022-07-10T06:09:53;15.38;78.24
68609;SHT31;55581;46.718;7.690;2022-07-10T06:12:18;15.45;77.94
68609;SHT31;55581;46.718;7.690;2022-07-10T06:14:46;15.44;76.75
68609;SHT31;55581;46.718;7.690;2022-07-10T06:17:12;15.58;76.34
68609;SHT31;55581;46.718;7.690;2022-07-10T06:19:37;15.79;75.27
68609;SHT31;55581;46.718;7.690;2022-07-10T06:22:03;15.99;75.89
68609;SHT31;55581;46.718;7.690;2022-07-10T06:24:47;16.24;74.92
68609;SHT31;55581;46.718;7.690;2022-07-10T06:27:12;16.40;73.51
68609;SHT31;55581;46.718;7.690;2022-07-10T06:29:38;16.52;73.57
68609;SHT31;55581;46.718;7.690;2022-07-10T06:32:07;16.64;72.85
68609;SHT31;55581;46.718;7.690;2022-07-10T06:34:32;16.76;72.51
68609;SHT31;55581;46.718;7.690;2022-07-10T06:36:58;16.86;72.29
68609;SHT31;55581;46.718;7.690;2022-07-10T06:39:23;17.09;71.62
68609;SHT31;55581;46.718;7.690;2022-07-10T06:41:49;17.32;71.71
68609;SHT31;55581;46.718;7.690;2022-07-10T06:44:16;17.54;71.53
68609;SHT31;55581;46.718;7.690;2022-07-10T06:46:42;17.79;70.07
68609;SHT31;55581;46.718;7.690;2022-07-10T06:49:27;17.97;69.38
68609;SHT31;55581;46.718;7.690;2022-07-10T06:51:53;18.18;69.11
68609;SHT31;55581;46.718;7.690;2022-07-10T06:54:19;18.36;68.42
68609;SHT31;55581;46.718;7.690;2022-07-10T06:56:45;18.51;67.31
68609;SHT31;55581;46.718;7.690;2022-07-10T06:59:11;18.73;67.04
68609;SHT31;55581;46.718;7.690;2022-07-10T07:01:38;18.93;66.38
68609;SHT31;55581;46.718;7.690;2022-07-10T07:04:04;19.12;64.70
68609;SHT31;55581;46.718;7.690;2022-07-10T07:06:30;19.24;65.23
68609;SHT31;55581;46.718;7.690;2022-07-10T07:08:55;19.34;64.80
68609;SHT31;55581;46.718;7.690;2022-07-10T07:11:21;19.47;64.21
68609;SHT31;55581;46.718;7.690;2022-07-10T07:13:48;19.53;64.64
68609;SHT31;55581;46.718;7.690;2022-07-10T07:16:14;19.55;64.67
68609;SHT31;55581;46.718;7.690;2022-07-10T07:18:43;19.64;63.99
68609;SHT31;55581;46.718;7.690;2022-07-10T07:21:14;19.81;61.89
68609;SHT31;55581;46.718;7.690;2022-07-10T07:23:58;19.96;62.13
68609;SHT31;55581;46.718;7.690;2022-07-10T07:26:23;20.06;61.82
68609;SHT31;55581;46.718;7.690;2022-07-10T07:28:49;20.16;62.03
68609;SHT31;55581;46.718;7.690;2022-07-10T07:31:14;20.26;62.03
68609;SHT31;55581;46.718;7.690;2022-07-10T07:33:43;20.44;61.35
68609;SHT31;55581;46.718;7.690;2022-07-10T07:36:08;20.45;60.88
68609;SHT31;55581;46.718;7.690;2022-07-10T07:38:34;20.48;59.87
68609;SHT31;55581;46.718;7.690;2022-07-10T07:41:01;20.47;61.44
68609;SHT31;55581;46.718;7.690;2022-07-10T07:43:27;20.50;60.35
68609;SHT31;55581;46.718;7.690;2022-07-10T07:45:53;20.71;60.59
68609;SHT31;55581;46.718;7.690;2022-07-10T07:48:18;20.75;59.81
68609;SHT31;55581;46.718;7.690;2022-07-10T07:50:44;20.82;60.48
68609;SHT31;55581;46.718;7.690;2022-07-10T07:53:09;20.85;59.85
68609;SHT31;55581;46.718;7.690;2022-07-10T07:55:35;21.03;59.62
68609;SHT31;55581;46.718;7.690;2022-07-10T07:58:01;21.20;59.04
68609;SHT31;55581;46.718;7.690;2022-07-10T08:00:31;21.34;58.52
68609;SHT31;55581;46.718;7.690;2022-07-10T08:02:57;21.22;59.47
68609;SHT31;55581;46.718;7.690;2022-07-10T08:05:23;21.32;58.35
68609;SHT31;55581;46.718;7.690;2022-07-10T08:07:57;21.64;57.34
68609;SHT31;55581;46.718;7.690;2022-07-10T08:10:25;21.73;57.18
68609;SHT31;55581;46.718;7.690;2022-07-10T08:12:51;21.71;56.59
68609;SHT31;55581;46.718;7.690;2022-07-10T08:15:19;21.85;56.80
68609;SHT31;55581;46.718;7.690;2022-07-10T08:17:48;21.99;56.40
68609;SHT31;55581;46.718;7.690;2022-07-10T08:20:13;22.01;54.64
68609;SHT31;55581;46.718;7.690;2022-07-10T08:22:44;22.08;54.60
68609;SHT31;55581;46.718;7.690;2022-07-10T08:25:10;22.22;55.02
68609;SHT31;55581;46.718;7.690;2022-07-10T08:27:36;22.19;54.62
68609;SHT31;55581;46.718;7.690;2022-07-10T08:30:02;22.25;53.20
68609;SHT31;55581;46.718;7.690;2022-07-10T08:32:28;22.28;54.23
68609;SHT31;55581;46.718;7.690;2022-07-10T08:34:56;22.42;54.01
68609;SHT31;55581;46.718;7.690;2022-07-10T08:37:24;22.37;52.60
68609;SHT31;55581;46.718;7.690;2022-07-10T08:39:49;22.54;53.63
68609;SHT31;55581;46.718;7.690;2022-07-10T08:42:15;22.60;54.60
68609;SHT31;55581;46.718;7.690;2022-07-10T08:44:41;22.50;56.27
68609;SHT31;55581;46.718;7.690;2022-07-10T08:47:08;22.53;54.99
68609;SHT31;55581;46.718;7.690;2022-07-10T08:49:33;22.70;54.17
68609;SHT31;55581;46.718;7.690;2022-07-10T08:52:47;22.90;52.83
68609;SHT31;55581;46.718;7.690;2022-07-10T08:54:55;22.94;54.41
68609;SHT31;55581;46.718;7.690;2022-07-10T08:57:22;23.01;55.24
68609;SHT31;55581;46.718;7.690;2022-07-10T08:59:51;23.00;53.71
68609;SHT31;55581;46.718;7.690;2022-07-10T09:02:16;23.35;52.12
68609;SHT31;55581;46.718;7.690;2022-07-10T09:04:42;23.23;51.74
68609;SHT31;55581;46.718;7.690;2022-07-10T09:07:09;23.07;53.29
68609;SHT31;55581;46.718;7.690;2022-07-10T09:09:52;23.15;53.16
68609;SHT31;55581;46.718;7.690;2022-07-10T09:12:19;23.07;52.92
68609;SHT31;55581;46.718;7.690;2022-07-10T09:14:44;23.04;52.72
68609;SHT31;55581;46.718;7.690;2022-07-10T09:17:10;23.53;50.09
68609;SHT31;55581;46.718;7.690;2022-07-10T09:19:35;23.67;50.49
68609;SHT31;55581;46.718;7.690;2022-07-10T09:22:08;23.64;50.00
68609;SHT31;55581;46.718;7.690;2022-07-10T09:24:42;23.85;52.23
68609;SHT31;55581;46.718;7.690;2022-07-10T09:27:09;24.00;51.10
68609;SHT31;55581;46.718;7.690;2022-07-10T09:29:48;24.14;50.91
68609;SHT31;55581;46.718;7.690;2022-07-10T09:32:15;24.42;47.92
68609;SHT31;55581;46.718;7.690;2022-07-10T09:34:45;24.55;48.04
68609;SHT31;55581;46.718;7.690;2022-07-10T09:37:40;24.30;50.33
68609;SHT31;55581;46.718;7.690;2022-07-10T09:40:07;24.39;51.06
68609;SHT31;55581;46.718;7.690;2022-07-10T09:42:41;24.53;50.52
68609;SHT31;55581;46.718;7.690;2022-07-10T09:47:40;24.56;48.69
68609;SHT31;55581;46.718;7.690;2022-07-10T09:50:22;24.80;49.09
68609;SHT31;55581;46.718;7.690;2022-07-10T09:53:08;24.97;49.85
68609;SHT31;55581;46.718;7.690;2022-07-10T09:55:36;25.10;48.75
68609;SHT31;55581;46.718;7.690;2022-07-10T09:58:04;25.27;49.02
68609;SHT31;55581;46.718;7.690;2022-07-10T10:00:36;24.95;48.40
68609;SHT31;55581;46.718;7.690;2022-07-10T10:03:06;25.00;48.40
68609;SHT31;55581;46.718;7.690;2022-07-10T10:05:44;25.20;47.77
68609;SHT31;55581;46.718;7.690;2022-07-10T10:10:43;25.66;47.37
68609;SHT31;55581;46.718;7.690;2022-07-10T10:13:10;25.86;46.87
68609;SHT31;55581;46.718;7.690;2022-07-10T10:15:37;25.46;47.07
68609;SHT31;55581;46.718;7.690;2022-07-10T10:18:02;25.76;46.99
68609;SHT31;55581;46.718;7.690;2022-07-10T10:20:32;25.83;48.72
68609;SHT31;55581;46.718;7.690;2022-07-10T10:23:05;25.97;46.48
68609;SHT31;55581;46.718;7.690;2022-07-10T10:25:33;26.00;47.58
68609;SHT31;55581;46.718;7.690;2022-07-10T10:28:06;25.83;48.79
68609;SHT31;55581;46.718;7.690;2022-07-10T10:30:39;25.94;47.95
68609;SHT31;55581;46.718;7.690;2022-07-10T10:36:02;26.28;48.35
68609;SHT31;55581;46.718;7.690;2022-07-10T10:46:54;27.02;45.76
68609;SHT31;55581;46.718;7.690;2022-07-10T10:49:23;26.69;46.60
68609;SHT31;55581;46.718;7.690;2022-07-10T10:52:10;26.87;44.59
68609;SHT31;55581;46.718;7.690;2022-07-10T10:57:33;27.27;45.60
68609;SHT31;55581;46.718;7.690;2022-07-10T11:00:13;26.63;45.98
68609;SHT31;55581;46.718;7.690;2022-07-10T11:02:44;26.83;46.55
68609;SHT31;55581;46.718;7.690;2022-07-10T11:08:00;26.90;46.78
68609;SHT31;55581;46.718;7.690;2022-07-10T11:13:01;27.44;45.21
68609;SHT31;55581;46.718;7.690;2022-07-10T11:15:28;26.96;44.16
68609;SHT31;55581;46.718;7.690;2022-07-10T11:18:08;27.17;44.65
68609;SHT31;55581;46.718;7.690;2022-07-10T11:20:36;27.29;45.35
68609;SHT31;55581;46.718;7.690;2022-07-10T11:26:02;27.27;44.05
68609;SHT31;55581;46.718;7.690;2022-07-10T11:28:54;27.20;44.02
68609;SHT31;55581;46.718;7.690;2022-07-10T11:31:24;27.35;45.00
68609;SHT31;55581;46.718;7.690;2022-07-10T11:33:52;27.49;43.65
68609;SHT31;55581;46.718;7.690;2022-07-10T11:36:25;27.42;43.52
68609;SHT31;55581;46.718;7.690;2022-07-10T11:38:58;27.15;44.77
68609;SHT31;55581;46.718;7.690;2022-07-10T11:41:23;27.02;43.60
68609;SHT31;55581;46.718;7.690;2022-07-10T11:43:59;27.17;44.21
68609;SHT31;55581;46.718;7.690;2022-07-10T11:48:55;27.11;44.10
68609;SHT31;55581;46.718;7.690;2022-07-10T11:54:00;27.44;46.30
68609;SHT31;55581;46.718;7.690;2022-07-10T11:56:29;27.58;44.71
68609;SHT31;55581;46.718;7.690;2022-07-10T11:59:03;27.54;44.41
68609;SHT31;55581;46.718;7.690;2022-07-10T12:01:49;27.42;42.77
68609;SHT31;55581;46.718;7.690;2022-07-10T12:04:16;27.35;43.09
68609;SHT31;55581;46.718;7.690;2022-07-10T12:06:45;27.07;44.22
68609;SHT31;55581;46.718;7.690;2022-07-10T12:09:17;27.35;42.91
68609;SHT31;55581;46.718;7.690;2022-07-10T12:11:57;27.23;44.90
68609;SHT31;55581;46.718;7.690;2022-07-10T12:14:24;27.13;43.99
68609;SHT31;55581;46.718;7.690;2022-07-10T12:16:56;27.10;44.49
68609;SHT31;55581;46.718;7.690;2022-07-10T12:19:28;26.93;47.62
68609;SHT31;55581;46.718;7.690;2022-07-10T12:21:56;26.86;47.78
68609;SHT31;55581;46.718;7.690;2022-07-10T12:24:22;27.06;45.51
68609;SHT31;55581;46.718;7.690;2022-07-10T12:26:49;27.24;45.16
68609;SHT31;55581;46.718;7.690;2022-07-10T12:29:26;27.55;44.56
68609;SHT31;55581;46.718;7.690;2022-07-10T12:31:55;27.58;45.68
68609;SHT31;55581;46.718;7.690;2022-07-10T12:34:41;27.63;44.57
68609;SHT31;55581;46.718;7.690;2022-07-10T12:37:12;27.85;44.77
68609;SHT31;55581;46.718;7.690;2022-07-10T12:39:53;27.63;44.37
68609;SHT31;55581;46.718;7.690;2022-07-10T12:42:26;27.75;43.39
68609;SHT31;55581;46.718;7.690;2022-07-10T12:44:52;27.78;44.60
68609;SHT31;55581;46.718;7.690;2022-07-10T12:47:20;27.48;45.09
68609;SHT31;55581;46.718;7.690;2022-07-10T12:50:05;26.99;46.13
68609;SHT31;55581;46.718;7.690;2022-07-10T12:52:36;27.35;44.96
68609;SHT31;55581;46.718;7.690;2022-07-10T12:55:21;27.37;43.57
68609;SHT31;55581;46.718;7.690;2022-07-10T12:57:58;27.34;46.17
68609;SHT31;55581;46.718;7.690;2022-07-10T13:00:33;27.27;45.26
68609;SHT31;55581;46.718;7.690;2022-07-10T13:03:09;27.51;45.33
68609;SHT31;55581;46.718;7.690;2022-07-10T13:05:42;27.42;45.44
68609;SHT31;55581;46.718;7.690;2022-07-10T13:10:34;27.65;45.23
68609;SHT31;55581;46.718;7.690;2022-07-10T13:13:05;27.69;45.03
68609;SHT31;55581;46.718;7.690;2022-07-10T13:15:31;27.63;44.58
68609;SHT31;55581;46.718;7.690;2022-07-10T13:17:57;27.82;43.09
68609;SHT31;55581;46.718;7.690;2022-07-10T13:20:23;27.84;44.29
68609;SHT31;55581;46.718;7.690;2022-07-10T13:22:49;27.72;44.16
68609;SHT31;55581;46.718;7.690;2022-07-10T13:25:14;27.90;43.64
68609;SHT31;55581;46.718;7.690;2022-07-10T13:27:40;27.88;44.56
68609;SHT31;55581;46.718;7.690;2022-07-10T13:30:07;27.88;44.17
68609;SHT31;55581;46.718;7.690;2022-07-10T13:32:33;28.12;43.59
68609;SHT31;55581;46.718;7.690;2022-07-10T13:35:01;27.96;42.65
68609;SHT31;55581;46.718;7.690;2022-07-10T13:37:27;27.92;44.32
68609;SHT31;55581;46.718;7.690;2022-07-10T13:39:55;27.76;44.03
68609;SHT31;55581;46.718;7.690;2022-07-10T13:42:20;27.59;44.22
68609;SHT31;55581;46.718;7.690;2022-07-10T13:44:49;27.68;43.97
68609;SHT31;55581;46.718;7.690;2022-07-10T13:47:14;27.70;44.60
68609;SHT31;55581;46.718;7.690;2022-07-10T13:49:42;27.59;45.34
68609;SHT31;55581;46.718;7.690;2022-07-10T13:52:07;27.35;46.80
68609;SHT31;55581;46.718;7.690;2022-07-10T13:54:34;27.15;45.16
68609;SHT31;55581;46.718;7.690;2022-07-10T13:56:59;27.54;44.47
68609;SHT31;55581;46.718;7.690;2022-07-10T13:59:24;27.66;44.13
68609;SHT31;55581;46.718;7.690;2022-07-10T14:01:51;27.89;44.20
68609;SHT31;55581;46.718;7.690;2022-07-10T14:04:16;27.66;44.91
68609;SHT31;55581;46.718;7.690;2022-07-10T14:06:42;27.63;43.78
68609;SHT31;55581;46.718;7.690;2022-07-10T14:09:07;27.78;43.60
68609;SHT31;55581;46.718;7.690;2022-07-10T14:11:35;27.89;43.13
68609;SHT31;55581;46.718;7.690;2022-07-10T14:14:01;27.73;44.27
68609;SHT31;55581;46.718;7.690;2022-07-10T14:16:26;27.40;45.58
68609;SHT31;55581;46.718;7.690;2022-07-10T14:18:51;27.35;45.77
68609;SHT31;55581;46.718;7.690;2022-07-10T14:21:18;27.75;43.76
68609;SHT31;55581;46.718;7.690;2022-07-10T14:23:44;27.42;45.71
68609;SHT31;55581;46.718;7.690;2022-07-10T14:26:10;27.38;45.01
68609;SHT31;55581;46.718;7.690;2022-07-10T14:28:36;27.42;44.27
68609;SHT31;55581;46.718;7.690;2022-07-10T14:31:04;27.76;44.29
68609;SHT31;55581;46.718;7.690;2022-07-10T14:33:35;27.70;44.81
68609;SHT31;55581;46.718;7.690;2022-07-10T14:36:04;27.76;44.68
68609;SHT31;55581;46.718;7.690;2022-07-10T14:38:30;27.70;43.35
68609;SHT31;55581;46.718;7.690;2022-07-10T14:40:55;27.70;44.46
68609;SHT31;55581;46.718;7.690;2022-07-10T14:43:23;27.63;43.56
68609;SHT31;55581;46.718;7.690;2022-07-10T14:45:49;27.65;46.00
68609;SHT31;55581;46.718;7.690;2022-07-10T14:48:16;28.03;42.50
68609;SHT31;55581;46.718;7.690;2022-07-10T14:50:46;28.25;42.85
68609;SHT31;55581;46.718;7.690;2022-07-10T14:53:12;28.23;43.26
68609;SHT31;55581;46.718;7.690;2022-07-10T14:55:37;27.75;44.85
68609;SHT31;55581;46.718;7.690;2022-07-10T14:58:03;27.75;44.84
68609;SHT31;55581;46.718;7.690;2022-07-10T15:00:28;27.65;44.43
68609;SHT31;55581;46.718;7.690;2022-07-10T15:02:56;27.82;43.13
68609;SHT31;55581;46.718;7.690;2022-07-10T15:05:21;28.09;43.33
68609;SHT31;55581;46.718;7.690;2022-07-10T15:07:47;27.78;42.78
68609;SHT31;55581;46.718;7.690;2022-07-10T15:10:12;27.73;43.49
68609;SHT31;55581;46.718;7.690;2022-07-10T15:12:38;27.66;43.82
68609;SHT31;55581;46.718;7.690;2022-07-10T15:15:04;27.99;43.00
68609;SHT31;55581;46.718;7.690;2022-07-10T15:17:33;27.89;44.69
68609;SHT31;55581;46.718;7.690;2022-07-10T15:20:05;27.90;45.59
68609;SHT31;55581;46.718;7.690;2022-07-10T15:22:30;27.70;43.24
68609;SHT31;55581;46.718;7.690;2022-07-10T15:24:58;27.81;44.35
68609;SHT31;55581;46.718;7.690;2022-07-10T15:27:23;27.90;43.67
68609;SHT31;55581;46.718;7.690;2022-07-10T15:29:48;27.82;43.87
68609;SHT31;55581;46.718;7.690;2022-07-10T15:32:14;27.92;46.25
68609;SHT31;55581;46.718;7.690;2022-07-10T15:34:40;28.05;46.22
68609;SHT31;55581;46.718;7.690;2022-07-10T15:37:05;27.81;44.54
68609;SHT31;55581;46.718;7.690;2022-07-10T15:39:33;27.95;44.37
68609;SHT31;55581;46.718;7.690;2022-07-10T15:42:10;28.00;43.68
68609;SHT31;55581;46.718;7.690;2022-07-10T15:44:36;27.85;43.30
68609;SHT31;55581;46.718;7.690;2022-07-10T15:47:02;27.69;44.47
68609;SHT31;55581;46.718;7.690;2022-07-10T15:49:28;27.33;45.64
68609;SHT31;55581;46.718;7.690;2022-07-10T15:51:53;26.75;45.34
68609;SHT31;55581;46.718;7.690;2022-07-10T15:54:21;26.96;46.94
68609;SHT31;55581;46.718;7.690;2022-07-10T15:56:47;27.20;45.80
68609;SHT31;55581;46.718;7.690;2022-07-10T15:59:12;27.29;46.87
68609;SHT31;55581;46.718;7.690;2022-07-10T16:01:37;27.02;46.08
68609;SHT31;55581;46.718;7.690;2022-07-10T16:04:03;26.83;45.79
68609;SHT31;55581;46.718;7.690;2022-07-10T16:06:28;26.86;46.58
68609;SHT31;55581;46.718;7.690;2022-07-10T16:08:56;26.71;47.40